Station: Lady Elliot Island

  Atmospheric Gas Attenuation - ITU Rec 676-11   --------------- db/100km ---------------
Date Time Temp RH % AH g/m3 Dew Point Wind Direction Speed kph Gust kph Barometer mB Rainfall Since 9am 24GHz 47GHz 76GHz 122GHz 134GHz 241GHz
27 02:09 26.1 83 20.32 23 22 24 1009 0 43.7 41.8 82.1 217.2 241.2 838.0
27 02:00 26.2 83 20.43 23.1 20 26 1009.1 0 43.9 42.0 82.5 218.3 242.6 843.0
27 01:50 26 82 19.96 22.7 22 26 1009.2 0 42.9 41.2 80.4 212.9 235.9 819.7
27 01:40 26.2 82 20.19 22.9 20 24 1009.2 0 43.4 41.5 81.3 215.3 238.9 830.0
27 01:30 26.1 82 20.08 22.8 20 26 1009.3 0 43.2 41.4 80.9 214.2 237.5 825.1
27 01:20 26.1 82 20.08 22.8 19 22 1009.4 0 43.2 41.4 80.9 214.2 237.5 825.2
27 01:09 26.1 82 20.08 22.8 20 22 1009.5 0 43.2 41.4 80.9 214.2 237.5 825.3
27 01:00 26.1 82 20.08 22.8 19 24 1009.6 0 43.2 41.4 80.9 214.2 237.6 825.3
27 00:49 26.2 82 20.19 22.9 19 20 1009.7 0 43.4 41.6 81.4 215.4 239.0 830.2
27 00:40 26.3 84 20.8 23.4 17 20 1009.7 0 44.7 42.7 84.2 222.9 248.2 862.4
27 00:30 26.2 83 20.43 23.1 20 24 1009.8 0 43.9 42.0 82.5 218.4 242.7 843.4
27 00:19 26.2 83 20.43 23.1 19 20 1010 0 43.9 42.0 82.5 218.5 242.8 843.5
27 00:09 26.3 82 20.3 23 19 22 1010.1 0 43.6 41.8 81.8 216.5 240.4 835.3
27 00:00 26.2 81 19.94 22.7 22 28 1010.2 0 42.8 41.1 80.2 212.3 235.2 817.0
26 23:50 26.2 80 19.69 22.5 22 24 1010.3 0 42.3 40.6 79.0 209.1 231.3 803.6
26 23:40 26.3 82 20.3 23 24 28 1010.3 0 43.6 41.8 81.8 216.6 240.5 835.4
26 23:30 26.4 81 20.16 22.9 20 26 1010.5 0 43.3 41.4 81.1 214.5 238.0 826.9
26 23:11 26.4 81 20.16 22.9 19 20 1010.7 0 43.3 41.5 81.1 214.6 238.0 827.0
26 23:09 26.4 81 20.16 22.9 20 24 1010.7 0 43.3 41.5 81.1 214.6 238.0 827.0
26 23:00 26.5 81 20.28 23 17 20 1010.9 43.5 41.6 81.5 215.8 239.6 832.5
26 22:36 26.6 81 20.39 23.1 19 24 1010.9 0 43.8 41.8 82.0 216.9 241.0 837.3
26 22:30 26.5 80 20.03 22.8 20 26 1010.9 0 43.0 41.2 80.4 212.7 235.7 819.0
26 21:47 26.4 81 20.16 22.9 20 26 1011.1 0 43.3 41.5 81.1 214.6 238.1 827.2
26 21:40 26.4 80 19.92 22.7 20 22 1011.1 0 42.8 41.0 80.0 211.6 234.4 814.2
26 21:30 26.4 80 19.92 22.7 19 22 1011.2 0 42.8 41.0 80.0 211.6 234.4 814.3
26 21:20 26.6 81 20.39 23.1 19 20 1011.1 0 43.8 41.8 82.0 217.0 241.0 837.4
26 21:09 26.6 81 20.39 23.1 19 22 1011.1 0 43.8 41.8 82.0 217.0 241.0 837.4
26 20:18 26.5 77 19.28 22.1 20 24 1010.8 0 41.4 39.7 76.8 203.3 224.2 778.9
26 20:10 26.7 78 19.74 22.5 20 24 1010.7 0 42.4 40.5 78.8 208.4 230.6 801.2
26 20:00 26.6 77 19.38 22.2 20 26 1010.6 0 41.6 39.9 77.2 204.2 225.4 783.0
26 19:49 26.6 78 19.63 22.4 22 26 1010.5 0 42.1 40.3 78.3 207.3 229.2 796.3
26 19:40 26.7 78 19.74 22.5 20 22 1010.5 0 42.4 40.5 78.8 208.4 230.6 801.1
26 19:30 26.8 79 20.11 22.8 19 22 1010.4 0 43.1 41.2 80.4 212.8 235.9 819.7
26 19:20 26.7 78 19.74 22.5 19 20 1010.2 0 42.4 40.5 78.7 208.4 230.5 800.9
26 19:10 26.7 77 19.49 22.3 17 20 1010.1 0 41.8 40.0 77.6 205.2 226.7 787.6
26 19:00 26.7 78 19.74 22.5 17 20 1010 0 42.4 40.5 78.7 208.3 230.5 800.8
26 18:50 26.8 78 19.85 22.6 15 20 1009.9 0 42.6 40.6 79.1 209.4 231.8 805.5
26 18:39 26.8 76 19.34 22.2 20 22 1009.7 0 41.5 39.7 76.7 203.0 224.0 778.4
26 18:30 27 76 19.56 22.4 17 22 1009.6 0 42.0 40.0 77.5 205.2 226.7 787.9
26 18:19 26.9 75 19.2 22.1 15 19 1009.5 0 41.2 39.4 76.0 201.0 221.6 769.9
26 18:10 26.9 74 18.94 21.9 17 20 1009.5 0 40.7 38.9 74.8 197.8 217.7 756.3
26 18:00 27.1 73 18.89 21.8 17 20 1009.4 0 40.5 38.7 74.3 196.7 216.3 751.7
26 17:50 27.6 73 19.42 22.3 17 20 1009.3 0 41.6 39.4 76.3 201.8 222.8 774.2
26 17:40 27.8 72 19.37 22.3 17 19 1009.2 0 41.5 39.2 75.8 200.7 221.4 769.5
26 17:30 27.8 71 19.1 22.1 17 20 1009.2 0 40.9 38.7 74.6 197.4 217.4 755.5
26 17:20 28.2 71 19.52 22.4 15 17 1009.1 0 41.7 39.3 76.1 201.4 222.5 773.2
26 17:10 28.4 69 19.18 22.2 15 17 1008.9 0 41.0 38.6 74.4 196.8 216.8 753.5
26 17:00 28.7 71 20.06 22.9 15 19 1008.9 0 42.8 40.1 78.1 206.6 229.0 796.0
26 16:50 28.8 68 19.32 22.5 17 19 1008.8 0 41.3 38.7 74.6 197.4 217.7 756.7
26 16:40 29.1 68 19.64 22.6 13 15 1008.7 0 41.9 39.1 75.7 200.5 221.5 770.1
26 16:30 29.3 67 19.56 22.5 15 19 1008.7 0 41.7 38.9 75.2 199.0 219.8 764.0
26 16:20 29.2 66 19.17 22.2 15 17 1008.7 0 40.9 38.2 73.5 194.6 214.4 745.1
26 16:10 29.5 68 20.07 23 15 17 1008.6 0 42.8 39.7 77.3 204.6 226.7 788.0
26 16:00 29.2 68 19.75 22.7 20 24 1008.5 0 42.1 39.2 76.1 201.5 222.8 774.6
26 15:50 28.9 68 19.43 22.4 20 22 1008.5 0 41.5 38.8 75.0 198.4 219.0 761.2
26 15:40 30 65 19.71 22.9 19 22 1008.5 0 42.0 38.8 75.2 198.9 219.9 764.5
26 15:30 30.3 68 20.96 23.7 19 24 1008.5 0 44.6 40.9 80.5 213.2 237.5 825.6
26 15:20 30.3 65 20.04 23 19 22 1008.6 0 42.6 39.3 76.3 202.1 223.9 778.3
26 15:10 30.2 63 19.32 22.6 19 22 1008.6 0 41.1 38.0 73.2 193.8 213.7 742.9
26 15:00 30.1 63 19.21 22.5 17 22 1008.6 0 40.9 37.9 72.8 192.8 212.4 738.4
26 14:50 30.4 67 20.77 23.6 17 19 1008.7 0 44.1 40.6 79.5 210.6 234.4 814.8
26 14:39 30.8 65 20.58 23.5 20 22 1008.8 0 43.7 40.0 78.3 207.2 230.3 800.8
26 14:30 30.5 64 19.94 22.9 19 24 1008.8 0 42.4 39.0 75.7 200.4 221.8 771.3
26 14:19 30.6 65 20.36 23.3 19 22 1008.9 0 43.3 39.7 77.5 205.2 227.7 791.7
26 14:10 31.3 64 20.82 23.7 19 20 1009 0 44.1 40.2 78.9 208.8 232.4 808.0
26 14:00 30.5 64 19.94 22.9 19 24 1009.1 0 42.4 39.0 75.7 200.4 221.9 771.5
26 13:50 30.8 61 19.32 22.4 19 20 1009.1 0 41.1 37.8 72.7 192.4 212.1 737.4
26 13:40 31 60 19.21 22.3 20 24 1009.1 0 40.8 37.5 72.0 190.6 210.0 730.0
26 13:30 31.2 61 19.74 23 20 24 1009.1 0 41.9 38.3 74.2 196.3 217.0 754.4
26 13:20 30.7 62 19.53 22.6 19 20 1009.2 0 41.5 38.2 73.7 195.1 215.4 748.9
26 13:10 30.9 64 20.38 23.3 20 24 1009.3 0 43.3 39.6 77.3 204.7 227.2 789.9
26 13:00 30.9 62 19.74 23 20 24 1009.4 0 41.9 38.5 74.5 197.1 217.9 757.5
26 12:50 30.8 64 20.27 23.2 19 20 1009.5 0 43.0 39.5 76.9 203.6 225.9 785.4
26 12:40 29.8 66 19.8 22.8 19 22 1009.6 0 42.2 39.1 75.8 200.7 222.0 771.7
26 12:30 31.6 61 20.16 23.4 19 24 1009.5 0 42.7 38.9 75.6 200.2 221.9 771.7
26 12:20 30.9 64 20.38 23.3 19 22 1009.7 0 43.3 39.6 77.3 204.7 227.2 790.1
26 12:10 30.5 66 20.57 23.4 17 20 1009.9 0 43.7 40.2 78.6 208.1 231.3 804.1
26 12:00 30.2 63 19.32 22.6 20 26 1009.9 0 41.1 38.1 73.3 194.0 213.9 743.6
26 11:50 30.5 63 19.63 22.7 20 22 1010 0 41.7 38.5 74.4 196.9 217.5 756.3
26 11:40 30.3 67 20.65 23.5 17 20 1010.1 0 43.9 40.4 79.2 209.7 233.1 810.4
26 11:30 30.4 63 19.53 22.6 19 22 1010.2 0 41.5 38.4 74.1 196.0 216.4 752.3
26 11:20 30.7 62 19.53 22.6 19 20 1010.1 0 41.5 38.2 73.8 195.2 215.5 749.3
26 11:10 30.7 65 20.47 23.4 17 19 1010.1 0 43.5 39.9 78.0 206.4 229.2 797.0
26 11:00 30.5 63 19.63 22.7 19 24 1010 0 41.7 38.5 74.4 196.9 217.5 756.3
26 10:50 30.4 65 20.15 23.1 20 24 1010 0 42.8 39.5 76.8 203.3 225.4 783.6
26 10:40 30.5 66 20.57 23.4 19 20 1010 0 43.7 40.2 78.6 208.1 231.3 804.1
26 10:30 30 65 19.71 22.9 20 24 1010.2 0 41.9 38.9 75.3 199.2 220.2 765.4
26 10:20 28.7 68 19.22 22.2 20 24 1010.3 0 41.1 38.6 74.3 196.7 216.8 753.4
26 10:10 30.1 65 19.82 22.8 19 20 1010.4 0 42.2 39.0 75.7 200.3 221.5 770.1
26 10:00 30.3 65 20.04 23 17 20 1010.5 0 42.6 39.3 76.5 202.4 224.2 779.3
26 09:49 29.8 66 19.8 22.8 17 20 1010.5 0 42.2 39.1 75.9 200.8 222.1 772.1
26 09:40 29.5 67 19.78 22.7 15 17 1010.4 0 42.1 39.2 76.1 201.4 222.7 774.1
26 09:30 29.1 68 19.64 22.6 20 24 1010.4 0 41.9 39.2 75.8 200.7 221.8 771.0
26 09:20 29.6 69 20.48 23.3 20 22 1010.3 0 43.6 40.5 79.2 209.5 232.8 809.2
26 09:10 29 66 18.96 22.2 17 20 1010.3 0 40.5 38.0 72.9 192.8 212.1 737.2
26 09:00 28.7 70 19.78 22.7 17 22 1010.4 0 42.2 39.6 76.9 203.5 225.1 782.3
26 08:50 28.9 67 19.14 22.2 19 22 1010.4 0 40.9 38.4 73.8 195.2 215.0 747.4
26 08:40 29.2 70 20.33 23.2 15 19 1010.4 0 43.3 40.4 78.9 208.8 231.8 805.6
26 08:00 28.3 70 19.35 22.3 17 20 1010.2 0 41.4 39.0 75.3 199.3 219.8 764.0
26 07:50 28.3 71 19.63 22.5 17 19 1010.2 0 42.0 39.5 76.6 202.7 224.0 778.5

Last Refresh: 27-Feb-2021 02:52:10

Most of the information presented on this site is sourced from the Bureau of Meteorology.  Copyright in all material sourced from the Bureau of Meteorology resides with the Commonwealth of Australia.